Time;durP1;ratioP1;P1;durP2;ratioP2;P2;SDS_P1;SDS_P2;PMS_P1;PMS_P2;Temp;Humidity;BMP_temperature;BMP_pressure;BME280_temperature;BME280_humidity;BME280_pressure;Samples;Min_cycle;Max_cycle;Signal;HPM_P1;HPM_P2
2022/07/11 00:01:35;;;;;;;0.60;0.60;;;19.70;62.90;;;;;;5047711;28;20035;-71
2022/07/11 00:04:01;;;;;;;0.77;0.50;;;19.70;62.90;;;;;;5045522;28;20115;-71
2022/07/11 00:06:26;;;;;;;1.30;0.30;;;19.70;62.90;;;;;;5027506;28;20040;-71
2022/07/11 00:08:52;;;;;;;0.70;0.40;;;19.70;63.00;;;;;;5045455;28;20100;-72
2022/07/11 00:11:17;;;;;;;0.50;0.40;;;19.70;63.00;;;;;;5047080;28;20020;-72
2022/07/11 00:13:43;;;;;;;1.27;0.30;;;19.70;63.00;;;;;;5047050;28;20050;-73
2022/07/11 00:16:08;;;;;;;3.50;0.45;;;19.70;63.00;;;;;;5026061;28;20075;-72
2022/07/11 00:18:34;;;;;;;0.98;0.50;;;19.70;63.00;;;;;;5024737;28;20026;-73
2022/07/11 00:20:59;;;;;;;1.33;0.30;;;19.70;63.00;;;;;;5026264;28;20035;-73
2022/07/11 00:23:25;;;;;;;0.68;0.50;;;19.70;63.00;;;;;;5030697;28;20175;-72
2022/07/11 00:25:50;;;;;;;0.60;0.40;;;19.70;63.00;;;;;;5030087;28;20729;-71
2022/07/11 00:28:16;;;;;;;0.90;0.40;;;19.70;63.00;;;;;;5047622;28;20599;-72
2022/07/11 00:30:42;;;;;;;0.73;0.40;;;19.70;63.00;;;;;;5052479;28;20039;-72
2022/07/11 00:33:07;;;;;;;2.25;0.40;;;19.70;63.70;;;;;;5045040;28;20025;-72
2022/07/11 00:35:33;;;;;;;0.82;0.60;;;19.70;63.10;;;;;;5054617;28;20555;-72
2022/07/11 00:37:58;;;;;;;1.75;0.40;;;19.70;63.10;;;;;;5064152;28;20041;-71
2022/07/11 00:40:24;;;;;;;0.93;0.70;;;19.70;63.10;;;;;;5019622;28;20033;-73
2022/07/11 00:42:49;;;;;;;1.02;0.40;;;19.70;63.10;;;;;;5010568;28;20052;-74
2022/07/11 00:45:15;;;;;;;1.33;0.47;;;19.70;63.10;;;;;;5003847;28;20458;-73
2022/07/11 00:47:40;;;;;;;0.50;0.40;;;19.70;63.10;;;;;;5006270;28;20033;-71
2022/07/11 00:50:06;;;;;;;0.47;0.30;;;19.70;63.10;;;;;;5015991;28;20032;-71
2022/07/11 00:52:31;;;;;;;0.70;0.40;;;19.70;63.20;;;;;;5046803;28;20056;-72
2022/07/11 00:54:57;;;;;;;0.52;0.40;;;19.70;63.10;;;;;;5030529;28;20043;-71
2022/07/11 00:57:22;;;;;;;0.47;0.40;;;19.70;63.10;;;;;;5030807;28;20039;-72
2022/07/11 00:59:48;;;;;;;1.00;0.40;;;19.70;63.10;;;;;;5046810;28;20139;-72
2022/07/11 01:02:13;;;;;;;1.42;0.60;;;19.70;63.10;;;;;;5012453;28;20524;-71
2022/07/11 01:04:39;;;;;;;0.57;0.32;;;19.70;63.20;;;;;;5027987;28;20040;-72
2022/07/11 01:07:04;;;;;;;0.55;0.43;;;19.70;63.10;;;;;;5045950;28;20036;-72
2022/07/11 01:09:31;;;;;;;1.90;0.77;;;19.70;63.20;;;;;;5026902;28;20086;-72
2022/07/11 01:11:57;;;;;;;1.65;0.60;;;19.70;63.20;;;;;;5010862;28;20122;-73
2022/07/11 01:14:23;;;;;;;0.75;0.35;;;19.70;63.20;;;;;;4991349;28;20076;-72
2022/07/11 01:16:51;;;;;;;0.45;0.20;;;19.70;63.20;;;;;;5038106;28;20028;-73
2022/07/11 01:19:16;;;;;;;2.47;0.50;;;19.70;63.20;;;;;;5046479;28;20032;-72
2022/07/11 01:21:42;;;;;;;1.00;0.30;;;19.70;63.20;;;;;;5029710;28;20024;-72
2022/07/11 01:24:08;;;;;;;0.50;0.40;;;19.70;63.20;;;;;;5007363;28;20041;-71
2022/07/11 01:26:34;;;;;;;0.30;0.28;;;19.70;63.20;;;;;;5024387;28;20049;-72
2022/07/11 01:29:10;;;;;;;0.77;0.50;;;19.70;63.20;;;;;;5006255;28;20524;-72
2022/07/11 01:31:38;;;;;;;0.50;0.30;;;19.70;63.20;;;;;;5022023;28;20086;-74
2022/07/11 01:34:04;;;;;;;1.00;0.40;;;19.70;63.20;;;;;;5047331;28;20396;-73
2022/07/11 01:36:29;;;;;;;0.40;0.30;;;19.70;63.30;;;;;;5066202;28;20043;-74
2022/07/11 01:38:54;;;;;;;1.10;0.30;;;19.70;63.20;;;;;;5035832;28;20093;-72
2022/07/11 01:41:20;;;;;;;0.63;0.35;;;19.70;63.30;;;;;;5061908;28;20087;-72
2022/07/11 01:43:46;;;;;;;0.68;0.40;;;19.70;63.30;;;;;;5010104;28;20067;-73
2022/07/11 01:46:11;;;;;;;1.02;0.40;;;19.60;63.30;;;;;;5004410;28;20041;-72
2022/07/11 01:48:37;;;;;;;0.75;0.32;;;19.70;63.30;;;;;;5024949;28;20026;-71
2022/07/11 01:51:02;;;;;;;1.63;0.43;;;19.70;63.40;;;;;;5028230;28;20021;-73
2022/07/11 01:53:28;;;;;;;0.93;0.30;;;19.70;63.30;;;;;;5026857;28;20029;-72
2022/07/11 01:55:53;;;;;;;1.10;0.55;;;19.60;64.00;;;;;;5030452;28;20017;-70
2022/07/11 01:58:19;;;;;;;0.30;0.20;;;19.60;63.30;;;;;;5047232;28;20123;-73
2022/07/11 02:00:44;;;;;;;1.27;0.30;;;19.70;63.40;;;;;;5029714;28;20609;-72
2022/07/11 02:03:10;;;;;;;1.33;0.50;;;19.60;63.30;;;;;;5021997;28;20037;-72
2022/07/11 02:05:38;;;;;;;0.47;0.20;;;19.60;63.40;;;;;;5023982;28;20028;-73
2022/07/11 02:08:13;;;;;;;0.90;0.40;;;19.60;63.40;;;;;;5007398;28;20037;-73
2022/07/11 02:10:47;;;;;;;0.55;0.38;;;19.70;63.40;;;;;;4989605;28;20071;-72
2022/07/11 02:13:13;;;;;;;0.90;0.40;;;19.60;63.50;;;;;;5008338;28;20657;-72
2022/07/11 02:15:38;;;;;;;1.02;0.47;;;19.60;63.50;;;;;;5025560;28;20116;-72
2022/07/11 02:18:04;;;;;;;1.08;0.40;;;19.60;63.50;;;;;;4991839;28;20052;-72
2022/07/11 02:20:30;;;;;;;2.08;0.45;;;19.70;63.50;;;;;;4988926;28;20563;-72
2022/07/11 02:22:57;;;;;;;0.50;0.40;;;19.60;63.50;;;;;;5004349;28;20033;-72
2022/07/11 02:25:23;;;;;;;0.77;0.40;;;19.60;63.40;;;;;;5025307;28;20036;-73
2022/07/11 02:27:49;;;;;;;0.50;0.32;;;19.60;63.50;;;;;;5056572;28;20021;-72
2022/07/11 02:30:15;;;;;;;0.30;0.22;;;19.60;63.50;;;;;;5028185;28;20068;-73
2022/07/11 02:32:40;;;;;;;1.95;0.40;;;19.60;63.50;;;;;;5016517;28;20032;-72
2022/07/11 02:35:06;;;;;;;0.22;0.22;;;19.60;63.60;;;;;;5025723;28;20062;-71
2022/07/11 02:37:32;;;;;;;1.48;0.50;;;19.60;63.60;;;;;;5015548;28;20037;-73
2022/07/11 02:39:57;;;;;;;0.63;0.40;;;19.60;63.60;;;;;;5004806;28;20559;-73
2022/07/11 02:42:23;;;;;;;0.38;0.30;;;19.60;63.60;;;;;;5022710;28;20043;-73
2022/07/11 02:44:48;;;;;;;0.90;0.30;;;19.70;63.60;;;;;;5028092;28;20104;-71
2022/07/11 02:47:14;;;;;;;1.23;0.40;;;19.60;63.60;;;;;;5034945;28;20048;-71
2022/07/11 02:49:40;;;;;;;0.40;0.20;;;19.60;63.60;;;;;;5021388;28;20038;-71
2022/07/11 02:52:06;;;;;;;0.28;0.20;;;19.60;63.60;;;;;;5013801;28;20025;-72
2022/07/11 02:54:31;;;;;;;1.17;0.70;;;19.60;63.60;;;;;;5044603;28;20542;-72
2022/07/11 02:56:56;;;;;;;0.30;0.30;;;19.60;63.60;;;;;;5042402;28;20085;-71
2022/07/11 02:59:22;;;;;;;1.00;0.40;;;19.60;63.60;;;;;;5024335;28;20099;-71
2022/07/11 03:01:48;;;;;;;0.50;0.45;;;19.60;64.30;;;;;;5008834;28;20503;-73
2022/07/11 03:04:14;;;;;;;0.77;0.40;;;19.60;63.60;;;;;;5047509;28;20033;-73
2022/07/11 03:06:40;;;;;;;0.43;0.30;;;19.60;63.60;;;;;;5033067;28;20373;-71
2022/07/11 03:09:06;;;;;;;0.70;0.40;;;19.60;63.70;;;;;;5027153;28;20029;-72
2022/07/11 03:11:32;;;;;;;2.05;0.40;;;19.60;63.70;;;;;;5046084;22;20110;-52
2022/07/11 03:13:57;;;;;;;0.32;0.30;;;19.60;63.70;;;;;;5043966;28;20033;-58
2022/07/11 03:16:23;;;;;;;0.90;0.52;;;19.60;63.60;;;;;;5044025;28;20029;-53
2022/07/11 03:18:49;;;;;;;2.42;0.30;;;19.60;63.70;;;;;;5043726;28;20504;-53
2022/07/11 03:21:14;;;;;;;0.73;0.30;;;19.60;63.80;;;;;;5041864;28;20043;-55
2022/07/11 03:23:40;;;;;;;0.77;0.40;;;19.60;63.80;;;;;;5042115;28;20181;-54
2022/07/11 03:26:05;;;;;;;0.38;0.20;;;19.60;63.80;;;;;;5044115;28;20025;-51
2022/07/11 03:28:31;;;;;;;0.77;0.30;;;19.60;63.80;;;;;;5042755;28;20028;-56
2022/07/11 03:30:56;;;;;;;0.77;0.40;;;19.60;63.80;;;;;;5041845;28;20539;-50
2022/07/11 03:33:22;;;;;;;0.90;0.40;;;19.60;63.80;;;;;;5041067;28;20037;-53
2022/07/11 03:35:47;;;;;;;0.38;0.30;;;19.60;63.80;;;;;;5042378;28;20079;-56
2022/07/11 03:38:15;;;;;;;0.47;0.30;;;19.60;63.80;;;;;;5029188;28;20419;-55
2022/07/11 03:40:41;;;;;;;2.05;0.85;;;19.60;63.90;;;;;;5041372;28;20037;-56
2022/07/11 03:43:06;;;;;;;0.77;0.30;;;19.60;63.90;;;;;;5043831;28;20025;-53
2022/07/11 03:45:32;;;;;;;1.10;0.50;;;19.60;63.80;;;;;;5043336;28;20090;-56
2022/07/11 03:47:57;;;;;;;0.65;0.50;;;19.60;63.90;;;;;;5042897;28;20027;-56
2022/07/11 03:50:23;;;;;;;0.52;0.35;;;19.60;63.90;;;;;;5043638;28;20025;-54
2022/07/11 03:52:48;;;;;;;0.52;0.28;;;19.60;63.90;;;;;;5034698;28;20036;-53
2022/07/11 03:55:14;;;;;;;1.27;0.45;;;19.60;63.80;;;;;;5057590;28;20041;-53
2022/07/11 03:57:39;;;;;;;0.50;0.30;;;19.60;63.80;;;;;;5042492;28;20056;-57
2022/07/11 04:00:06;;;;;;;0.40;0.30;;;19.60;63.80;;;;;;5024723;28;20029;-53
2022/07/11 04:02:32;;;;;;;1.30;0.38;;;19.60;63.90;;;;;;5041056;28;20079;-57
2022/07/11 04:04:58;;;;;;;0.32;0.30;;;19.60;63.90;;;;;;5041640;28;20620;-55
2022/07/11 04:07:23;;;;;;;0.45;0.30;;;19.60;63.90;;;;;;5023480;28;20086;-57
2022/07/11 04:09:49;;;;;;;1.33;0.30;;;19.60;63.90;;;;;;5037263;28;20033;-57
2022/07/11 04:12:14;;;;;;;13.90;1.40;;;19.60;64.00;;;;;;5042508;28;20044;-56
2022/07/11 04:14:40;;;;;;;38.38;2.83;;;19.60;64.00;;;;;;5041677;28;20074;-55
2022/07/11 04:17:05;;;;;;;25.35;2.70;;;19.60;64.20;;;;;;5040394;28;20370;-56
2022/07/11 04:19:31;;;;;;;35.95;2.58;;;19.60;64.10;;;;;;5023109;28;20082;-56
2022/07/11 04:21:56;;;;;;;26.70;2.75;;;19.60;64.40;;;;;;5042121;28;20048;-55
2022/07/11 04:24:22;;;;;;;18.88;1.75;;;19.60;64.40;;;;;;5041448;28;20114;-54
2022/07/11 04:26:47;;;;;;;19.45;2.13;;;19.70;64.60;;;;;;5042574;28;20648;-55
2022/07/11 04:29:13;;;;;;;22.08;2.53;;;19.70;65.00;;;;;;5015304;28;20109;-56
2022/07/11 04:31:38;;;;;;;10.90;1.60;;;19.70;65.20;;;;;;5004652;28;20048;-55
2022/07/11 04:34:04;;;;;;;13.43;1.92;;;19.70;65.10;;;;;;5028678;28;20063;-54
2022/07/11 04:36:29;;;;;;;16.80;1.60;;;19.80;65.20;;;;;;5042397;28;20734;-56
2022/07/11 04:38:55;;;;;;;19.98;2.45;;;19.80;65.20;;;;;;5039551;28;20029;-54
2022/07/11 04:41:20;;;;;;;21.75;2.67;;;19.80;65.30;;;;;;5040801;28;20086;-55
2022/07/11 04:43:46;;;;;;;22.88;3.05;;;19.80;65.40;;;;;;5023806;28;20025;-55
2022/07/11 04:46:11;;;;;;;19.45;2.58;;;19.80;65.40;;;;;;5042684;28;20028;-53
2022/07/11 04:48:37;;;;;;;20.33;2.22;;;19.80;65.50;;;;;;5042184;28;20017;-56
2022/07/11 04:51:04;;;;;;;18.55;2.28;;;19.80;65.40;;;;;;5042352;28;20502;-56
2022/07/11 04:53:30;;;;;;;15.38;2.40;;;19.80;65.40;;;;;;5042832;28;20028;-54
2022/07/11 04:55:55;;;;;;;12.45;1.83;;;19.80;65.50;;;;;;5042750;28;20438;-54
2022/07/11 04:58:21;;;;;;;20.73;2.20;;;19.80;65.50;;;;;;5060644;28;20036;-54
2022/07/11 05:00:46;;;;;;;22.75;1.85;;;19.80;65.50;;;;;;5044547;28;20174;-55
2022/07/11 05:03:12;;;;;;;14.73;1.80;;;19.80;65.40;;;;;;5041763;28;20543;-56
2022/07/11 05:05:37;;;;;;;15.02;3.13;;;19.80;65.50;;;;;;5042447;28;20033;-57
2022/07/11 05:08:03;;;;;;;10.30;1.90;;;19.80;65.40;;;;;;5040417;28;20614;-52
2022/07/11 05:10:31;;;;;;;11.95;1.77;;;19.80;65.20;;;;;;5049823;28;20048;-56
2022/07/11 05:12:56;;;;;;;12.30;1.60;;;19.70;65.70;;;;;;5043225;28;20046;-57
2022/07/11 05:15:22;;;;;;;12.05;1.70;;;19.70;65.10;;;;;;5049394;28;20029;-54
2022/07/11 05:17:48;;;;;;;10.35;1.30;;;19.70;65.20;;;;;;5039432;28;20336;-55
2022/07/11 05:20:13;;;;;;;11.32;2.15;;;19.80;65.70;;;;;;5041542;28;20266;-57
2022/07/11 05:22:39;;;;;;;7.57;1.05;;;19.80;65.60;;;;;;5060954;28;20526;-54
2022/07/11 05:25:05;;;;;;;18.35;2.90;;;19.90;65.60;;;;;;5037910;28;20068;-56
2022/07/11 05:27:30;;;;;;;17.95;1.60;;;19.90;66.40;;;;;;5038558;28;25118;-55
2022/07/11 05:29:56;;;;;;;11.30;1.83;;;19.90;65.70;;;;;;5039046;28;20104;-55
2022/07/11 05:32:21;;;;;;;10.60;1.98;;;19.90;65.60;;;;;;5039174;28;20354;-55
2022/07/11 05:34:47;;;;;;;16.40;1.92;;;19.90;65.40;;;;;;5039305;28;20046;-56
2022/07/11 05:37:12;;;;;;;12.35;1.75;;;19.90;65.40;;;;;;5039534;28;20029;-55
2022/07/11 05:39:38;;;;;;;12.65;2.22;;;19.90;65.50;;;;;;5039887;28;20110;-55
2022/07/11 05:42:03;;;;;;;11.48;1.85;;;19.90;65.70;;;;;;5041034;28;20439;-53
2022/07/11 05:44:29;;;;;;;11.13;1.65;;;19.90;65.80;;;;;;5040849;28;20033;-56
2022/07/11 05:47:01;;;;;;;5.53;1.40;;;19.90;65.80;;;;;;5038872;28;20044;-57
2022/07/11 05:49:27;;;;;;;15.80;2.58;;;19.90;65.80;;;;;;5039424;28;20230;-52
2022/07/11 05:51:52;;;;;;;12.85;1.92;;;19.90;65.70;;;;;;5039954;28;20548;-53
2022/07/11 05:54:18;;;;;;;9.68;1.45;;;19.90;65.70;;;;;;5041116;28;20026;-58
2022/07/11 05:56:43;;;;;;;11.95;1.90;;;19.90;65.70;;;;;;5041734;28;20035;-57
2022/07/11 05:59:09;;;;;;;9.52;1.80;;;19.90;65.70;;;;;;5039300;28;20213;-54
2022/07/11 06:01:35;;;;;;;10.55;1.85;;;19.90;65.80;;;;;;5039085;28;20052;-55
2022/07/11 06:04:00;;;;;;;8.52;1.35;;;19.90;65.80;;;;;;5023236;28;20025;-56
2022/07/11 06:06:26;;;;;;;7.70;2.50;;;19.90;65.80;;;;;;5022694;28;20522;-53
2022/07/11 06:08:53;;;;;;;6.40;1.65;;;19.90;65.80;;;;;;5041554;28;20025;-53
2022/07/11 06:11:19;;;;;;;7.93;1.67;;;19.90;65.80;;;;;;5041299;28;20037;-55
2022/07/11 06:13:44;;;;;;;9.73;1.52;;;19.80;65.70;;;;;;5041726;28;20047;-53
2022/07/11 06:16:10;;;;;;;9.90;1.52;;;19.90;65.50;;;;;;5041541;28;20033;-55
2022/07/11 06:18:36;;;;;;;4.40;1.50;;;19.80;65.30;;;;;;5040687;28;20025;-56
2022/07/11 06:21:02;;;;;;;8.57;1.23;;;19.80;65.20;;;;;;5039334;28;20578;-57
2022/07/11 06:23:28;;;;;;;7.32;1.25;;;19.80;65.10;;;;;;5039982;28;20500;-55
2022/07/11 06:25:54;;;;;;;8.38;1.35;;;19.80;65.10;;;;;;5041393;28;20439;-53
2022/07/11 06:28:20;;;;;;;9.25;1.88;;;19.80;65.00;;;;;;5039531;28;20049;-55
2022/07/11 06:30:45;;;;;;;4.15;1.52;;;19.80;64.80;;;;;;5040367;28;20056;-57
2022/07/11 06:33:11;;;;;;;6.05;1.55;;;19.80;64.50;;;;;;5041402;28;20025;-56
2022/07/11 06:35:36;;;;;;;5.43;1.48;;;19.80;64.50;;;;;;5039941;28;20029;-54
2022/07/11 06:38:02;;;;;;;8.80;1.80;;;19.80;64.40;;;;;;5041893;28;20036;-54
2022/07/11 06:40:27;;;;;;;4.43;1.15;;;19.80;64.40;;;;;;5044185;28;20037;-53
2022/07/11 06:42:53;;;;;;;11.57;1.77;;;19.80;64.50;;;;;;5043211;28;20487;-55
2022/07/11 06:45:18;;;;;;;5.57;1.58;;;19.80;64.40;;;;;;5045704;28;20090;-55
2022/07/11 06:47:44;;;;;;;15.95;2.28;;;19.80;64.40;;;;;;5045170;28;20064;-54
2022/07/11 06:50:09;;;;;;;5.18;1.50;;;19.80;64.30;;;;;;5044002;28;20098;-57
2022/07/11 06:52:35;;;;;;;5.88;1.23;;;19.80;64.40;;;;;;5045449;28;20718;-53
2022/07/11 06:55:01;;;;;;;12.07;1.90;;;19.80;64.50;;;;;;5045633;28;20029;-55
2022/07/11 06:57:26;;;;;;;9.50;1.92;;;19.80;64.40;;;;;;5044404;28;20560;-54
2022/07/11 06:59:52;;;;;;;12.23;2.33;;;19.80;64.50;;;;;;5041110;28;20044;-57
2022/07/11 07:02:17;;;;;;;34.67;3.35;;;19.80;64.30;;;;;;5043201;28;20480;-56
2022/07/11 07:04:43;;;;;;;17.92;2.85;;;19.80;64.20;;;;;;5043531;28;20025;-55
2022/07/11 07:07:08;;;;;;;24.85;3.22;;;19.80;64.20;;;;;;5043869;28;20220;-54
2022/07/11 07:09:34;;;;;;;15.52;2.63;;;19.80;64.20;;;;;;5042962;28;20025;-55
2022/07/11 07:11:59;;;;;;;17.48;2.13;;;19.80;64.10;;;;;;5042252;28;20036;-55
2022/07/11 07:14:25;;;;;;;16.42;2.50;;;19.80;64.50;;;;;;5043119;28;20029;-54
2022/07/11 07:16:50;;;;;;;16.92;2.38;;;19.80;64.60;;;;;;5043553;28;20439;-55
2022/07/11 07:19:16;;;;;;;13.10;1.88;;;19.80;64.50;;;;;;5043142;28;20304;-58
2022/07/11 07:21:41;;;;;;;10.20;2.00;;;19.80;64.40;;;;;;5044764;28;20025;-55
2022/07/11 07:24:07;;;;;;;14.02;2.40;;;19.80;64.40;;;;;;5025832;28;20021;-56
2022/07/11 07:26:32;;;;;;;13.38;2.33;;;19.80;64.30;;;;;;5042761;28;20580;-55
2022/07/11 07:28:58;;;;;;;12.20;2.30;;;19.80;64.30;;;;;;5041408;28;20029;-54
2022/07/11 07:31:24;;;;;;;24.35;3.03;;;19.80;64.30;;;;;;5041985;28;20028;-54
2022/07/11 07:33:49;;;;;;;21.75;2.85;;;19.80;64.30;;;;;;5044035;28;20036;-57
2022/07/11 07:36:15;;;;;;;10.43;1.90;;;19.80;64.50;;;;;;5041704;28;20036;-56
2022/07/11 07:38:43;;;;;;;15.45;1.98;;;19.80;64.50;;;;;;5025189;28;20116;-56
2022/07/11 07:41:09;;;;;;;10.05;1.80;;;19.80;64.50;;;;;;5025223;28;20048;-56
2022/07/11 07:43:35;;;;;;;10.93;2.78;;;19.80;64.50;;;;;;5042217;28;20055;-54
2022/07/11 07:46:00;;;;;;;8.63;2.60;;;19.80;64.50;;;;;;5041788;28;20558;-55
2022/07/11 07:48:26;;;;;;;13.55;2.65;;;19.80;64.50;;;;;;5042758;28;20048;-55
2022/07/11 07:50:51;;;;;;;7.68;1.92;;;19.80;64.60;;;;;;5041015;28;20021;-55
2022/07/11 07:53:17;;;;;;;12.45;1.88;;;19.80;64.70;;;;;;5042867;28;20036;-54
2022/07/11 07:55:42;;;;;;;7.05;2.08;;;19.80;64.70;;;;;;5043504;28;20040;-56
2022/07/11 07:58:08;;;;;;;6.40;1.38;;;19.80;64.70;;;;;;5042051;28;21367;-56
2022/07/11 08:03:17;;;;;;;6.85;1.23;;;19.80;64.70;;;;;;5042214;28;20595;-55
2022/07/11 08:05:43;;;;;;;6.88;1.50;;;19.80;64.70;;;;;;5042565;28;20045;-56
2022/07/11 08:08:08;;;;;;;7.07;1.48;;;19.80;64.70;;;;;;5043160;28;20113;-56
2022/07/11 08:10:34;;;;;;;7.15;1.23;;;19.80;64.80;;;;;;5041868;28;20037;-53
2022/07/11 08:12:59;;;;;;;8.85;1.30;;;19.80;64.70;;;;;;5042715;28;20033;-54
2022/07/11 08:15:25;;;;;;;10.23;1.48;;;19.80;64.70;;;;;;5042507;28;20029;-55
2022/07/11 08:17:52;;;;;;;5.43;1.20;;;19.80;64.80;;;;;;5042327;28;20078;-56
2022/07/11 08:20:17;;;;;;;4.32;1.38;;;19.70;64.60;;;;;;5041841;28;20579;-53
2022/07/11 08:22:43;;;;;;;2.53;1.17;;;19.70;64.70;;;;;;5042723;28;20025;-57
2022/07/11 08:25:08;;;;;;;4.95;1.33;;;19.70;64.70;;;;;;5042237;28;20585;-58
2022/07/11 08:27:35;;;;;;;6.57;1.05;;;19.80;64.70;;;;;;5040751;28;20055;-54
2022/07/11 08:30:03;;;;;;;4.13;1.40;;;19.70;64.60;;;;;;5041686;28;20025;-55
2022/07/11 08:32:28;;;;;;;6.03;1.20;;;19.70;64.60;;;;;;5042095;28;20029;-57
2022/07/11 08:34:54;;;;;;;4.63;1.08;;;19.70;64.70;;;;;;5042407;28;20480;-54
2022/07/11 08:37:19;;;;;;;3.65;1.10;;;19.70;64.60;;;;;;5041218;28;20072;-58
2022/07/11 08:39:45;;;;;;;2.78;1.00;;;19.70;64.60;;;;;;5040994;28;20079;-54
2022/07/11 08:42:10;;;;;;;5.45;1.00;;;19.70;64.70;;;;;;5042275;28;20029;-56
2022/07/11 08:44:37;;;;;;;4.65;1.10;;;19.70;64.70;;;;;;5006343;28;20033;-54
2022/07/11 08:47:03;;;;;;;4.90;1.05;;;19.70;64.70;;;;;;5022494;28;21024;-53
2022/07/11 08:49:28;;;;;;;4.45;0.93;;;19.70;64.60;;;;;;5038108;28;20037;-56
2022/07/11 08:51:54;;;;;;;3.03;0.88;;;19.70;64.60;;;;;;5041146;28;20029;-55
2022/07/11 08:54:19;;;;;;;5.28;0.95;;;19.70;64.50;;;;;;5009214;28;20543;-56
2022/07/11 08:56:54;;;;;;;3.65;1.23;;;19.70;64.60;;;;;;4978811;28;20033;-54
2022/07/11 08:59:23;;;;;;;6.28;1.23;;;19.70;64.60;;;;;;4988575;28;20060;-56
2022/07/11 09:01:49;;;;;;;5.53;1.17;;;19.70;64.50;;;;;;5020646;28;20033;-57
2022/07/11 09:04:14;;;;;;;3.92;0.98;;;19.70;64.50;;;;;;5016897;28;20037;-53
2022/07/11 09:06:40;;;;;;;3.05;1.20;;;19.70;64.50;;;;;;5042244;28;20039;-56
2022/07/11 09:09:05;;;;;;;4.45;0.73;;;19.70;64.50;;;;;;5039516;28;20033;-55
2022/07/11 09:11:50;;;;;;;2.63;0.93;;;19.70;64.50;;;;;;5041098;28;20041;-54
2022/07/11 09:14:23;;;;;;;2.87;0.63;;;19.70;64.50;;;;;;5041208;28;20450;-56
2022/07/11 09:16:58;;;;;;;5.85;1.10;;;19.70;64.40;;;;;;5041447;28;20021;-55
2022/07/11 09:19:25;;;;;;;3.05;0.85;;;19.70;64.50;;;;;;5039291;28;20037;-57
2022/07/11 09:27:56;;;;;;;3.92;0.80;;;19.70;64.40;;;;;;5037999;28;20079;-55
2022/07/11 09:30:26;;;;;;;5.38;0.80;;;19.70;64.40;;;;;;5037304;28;20423;-57
2022/07/11 09:33:05;;;;;;;2.47;1.02;;;19.70;64.40;;;;;;5020816;28;20025;-56
2022/07/11 09:35:31;;;;;;;5.35;1.27;;;19.70;64.40;;;;;;5000627;28;20489;-55
2022/07/11 09:37:57;;;;;;;4.65;0.95;;;19.70;64.40;;;;;;5001441;28;20492;-55
2022/07/11 09:40:23;;;;;;;4.65;1.00;;;19.70;64.40;;;;;;5016458;28;20090;-54
2022/07/11 09:42:49;;;;;;;2.70;1.25;;;19.70;64.40;;;;;;5038231;28;20029;-56
2022/07/11 09:45:16;;;;;;;4.30;0.98;;;19.70;64.40;;;;;;5039690;28;20033;-53
2022/07/11 09:47:47;;;;;;;5.32;1.05;;;19.70;64.40;;;;;;5040498;28;20785;-54
2022/07/11 09:50:17;;;;;;;3.03;0.98;;;19.70;64.50;;;;;;5032026;28;20060;-55
2022/07/11 09:52:43;;;;;;;3.45;1.55;;;19.70;64.30;;;;;;4996076;28;20021;-53
2022/07/11 09:55:09;;;;;;;9.20;1.17;;;19.70;64.30;;;;;;5038412;28;20033;-56
2022/07/11 09:57:36;;;;;;;5.07;0.80;;;19.70;64.30;;;;;;5039170;28;20029;-55
2022/07/11 10:00:04;;;;;;;4.68;0.80;;;19.70;64.30;;;;;;5039592;28;20043;-54
2022/07/11 10:02:29;;;;;;;4.15;0.82;;;19.70;64.30;;;;;;5039120;28;20576;-56
2022/07/11 10:04:55;;;;;;;4.25;0.80;;;19.70;64.30;;;;;;5040165;28;20120;-53
2022/07/11 10:07:20;;;;;;;2.88;0.80;;;19.70;64.30;;;;;;5022054;28;20300;-55
2022/07/11 10:09:46;;;;;;;4.13;1.23;;;19.70;64.30;;;;;;5038041;28;20083;-56
2022/07/11 10:12:11;;;;;;;4.78;0.85;;;19.70;64.20;;;;;;5040012;28;20047;-57
2022/07/11 10:14:37;;;;;;;3.58;0.75;;;19.80;64.30;;;;;;5016253;28;20032;-53
2022/07/11 10:17:07;;;;;;;2.22;0.70;;;19.70;64.20;;;;;;4986007;28;20050;-55
2022/07/11 10:19:47;;;;;;;1.42;0.73;;;19.80;64.20;;;;;;4985621;28;20053;-56
2022/07/11 10:22:35;;;;;;;1.63;0.75;;;19.80;64.30;;;;;;4986150;28;20646;-56
2022/07/11 10:25:32;;;;;;;2.75;1.13;;;19.80;64.30;;;;;;5013983;28;20025;-55
2022/07/11 10:28:13;;;;;;;1.85;0.75;;;19.80;64.30;;;;;;5038319;28;20029;-54
2022/07/11 10:30:46;;;;;;;2.10;0.80;;;19.80;64.20;;;;;;5008908;28;20022;-56
2022/07/11 10:33:12;;;;;;;3.30;0.85;;;19.80;64.20;;;;;;5019534;28;20036;-55
2022/07/11 10:35:45;;;;;;;2.25;0.70;;;19.80;64.20;;;;;;5022320;28;20075;-55
2022/07/11 10:38:11;;;;;;;1.52;0.55;;;19.80;64.20;;;;;;5040352;28;20102;-54
2022/07/11 10:41:20;;;;;;;2.33;0.60;;;19.80;64.20;;;;;;5039005;28;20059;-56
2022/07/11 10:43:48;;;;;;;2.35;1.00;;;19.80;64.10;;;;;;4966965;28;20313;-56
2022/07/11 10:46:19;;;;;;;2.15;0.73;;;19.80;64.10;;;;;;5011543;28;20519;-55
2022/07/11 10:48:52;;;;;;;1.98;0.68;;;19.80;64.00;;;;;;5037684;28;20033;-55
2022/07/11 10:51:29;;;;;;;2.97;0.80;;;19.80;64.00;;;;;;5038727;28;20716;-57
2022/07/11 10:53:54;;;;;;;3.38;1.25;;;19.80;64.00;;;;;;5038533;28;20037;-58
2022/07/11 10:56:57;;;;;;;2.70;0.68;;;19.80;64.00;;;;;;5007468;28;20114;-56
2022/07/11 10:59:23;;;;;;;3.65;0.90;;;19.80;64.00;;;;;;5018657;28;20539;-57
2022/07/11 11:02:02;;;;;;;4.50;1.00;;;19.80;64.00;;;;;;5037542;28;20105;-55
2022/07/11 11:04:47;;;;;;;3.20;0.75;;;19.80;64.00;;;;;;5038974;28;20111;-56
2022/07/11 11:07:34;;;;;;;4.80;1.08;;;19.80;64.10;;;;;;5001777;28;20521;-56
2022/07/11 11:10:01;;;;;;;3.63;0.80;;;19.80;64.20;;;;;;5002104;28;20029;-56
2022/07/11 11:13:04;;;;;;;3.03;0.93;;;19.80;64.10;;;;;;5048441;23;20120;-57
2022/07/11 11:15:40;;;;;;;3.17;1.52;;;19.80;64.20;;;;;;5013067;28;20132;-52
2022/07/11 11:18:24;;;;;;;3.65;0.85;;;19.80;64.20;;;;;;5019368;28;20032;-55
2022/07/11 11:21:07;;;;;;;3.15;1.10;;;19.80;64.10;;;;;;5018899;28;20037;-56
2022/07/11 11:23:43;;;;;;;6.80;1.27;;;19.80;64.30;;;;;;5018838;28;20085;-55
2022/07/11 11:26:16;;;;;;;5.60;1.42;;;19.80;64.10;;;;;;5010350;28;20492;-53
2022/07/11 11:29:00;;;;;;;2.75;1.15;;;19.80;64.10;;;;;;5012204;28;20053;-57
2022/07/11 11:31:26;;;;;;;5.32;1.40;;;19.80;64.10;;;;;;5022647;28;20044;-53
2022/07/11 11:33:51;;;;;;;4.15;1.60;;;19.80;64.10;;;;;;5022929;28;20026;-53
2022/07/11 11:36:21;;;;;;;3.92;1.45;;;19.80;64.10;;;;;;5000384;28;20117;-53
2022/07/11 11:38:46;;;;;;;7.25;1.48;;;19.80;64.10;;;;;;5020808;28;20455;-50
2022/07/11 11:41:13;;;;;;;9.13;1.48;;;19.80;64.20;;;;;;5001946;28;20038;-52
2022/07/11 11:43:39;;;;;;;7.95;2.08;;;19.80;64.10;;;;;;5001569;28;20096;-50
2022/07/11 11:46:05;;;;;;;8.40;1.80;;;19.80;64.30;;;;;;4988380;28;20467;-53
2022/07/11 11:48:32;;;;;;;6.28;1.70;;;19.80;64.10;;;;;;5022437;28;20034;-52
2022/07/11 11:51:04;;;;;;;4.25;1.55;;;19.80;64.10;;;;;;5015704;28;20118;-53
2022/07/11 11:53:36;;;;;;;5.90;1.45;;;19.80;64.20;;;;;;5007034;28;20034;-50
2022/07/11 11:56:13;;;;;;;5.78;1.30;;;19.80;64.30;;;;;;5006343;28;20036;-55
2022/07/11 11:58:40;;;;;;;3.90;1.50;;;19.80;64.20;;;;;;5022230;28;20026;-52
2022/07/11 12:01:05;;;;;;;3.47;1.27;;;19.80;64.20;;;;;;5020773;28;20038;-55
2022/07/11 12:03:50;;;;;;;5.95;1.45;;;19.80;64.20;;;;;;5022343;28;20421;-54
2022/07/11 12:06:15;;;;;;;6.15;1.70;;;19.80;64.10;;;;;;5021171;28;20356;-55
2022/07/11 12:08:41;;;;;;;5.75;1.63;;;19.80;64.20;;;;;;5022711;28;20204;-52
2022/07/11 12:11:11;;;;;;;5.32;1.83;;;19.80;64.10;;;;;;5021910;28;20572;-55
2022/07/11 12:13:36;;;;;;;7.78;2.03;;;19.80;64.20;;;;;;5021272;28;20033;-56
2022/07/11 12:18:49;;;;;;;7.25;2.45;;;19.80;64.30;;;;;;5010477;28;20049;-54
2022/07/11 12:21:14;;;;;;;5.53;1.45;;;19.80;64.20;;;;;;5021132;28;20114;-56
2022/07/11 12:23:40;;;;;;;4.55;1.35;;;19.80;64.20;;;;;;5014055;28;20116;-56
2022/07/11 12:26:05;;;;;;;5.68;1.25;;;19.80;64.00;;;;;;5021979;28;20037;-54
2022/07/11 12:28:34;;;;;;;4.63;1.23;;;19.80;64.10;;;;;;5021281;28;20044;-56
2022/07/11 12:31:01;;;;;;;8.57;1.60;;;19.80;64.20;;;;;;5020026;28;20104;-53
2022/07/11 12:33:26;;;;;;;6.78;1.80;;;19.80;64.30;;;;;;5012666;28;20037;-49
2022/07/11 12:35:57;;;;;;;6.28;1.90;;;19.90;64.30;;;;;;5003700;28;20030;-52
2022/07/11 12:38:22;;;;;;;5.93;1.60;;;19.90;64.30;;;;;;5033702;28;20116;-57
2022/07/11 12:41:04;;;;;;;7.82;1.67;;;19.80;64.20;;;;;;5020966;28;20108;-51
2022/07/11 12:46:37;;;;;;;8.52;1.70;;;19.90;64.30;;;;;;5006389;28;20427;-59
2022/07/11 12:49:03;;;;;;;7.25;1.55;;;19.90;64.30;;;;;;5021630;28;20037;-54
2022/07/11 12:51:35;;;;;;;4.95;1.10;;;19.90;64.30;;;;;;5021935;28;20108;-53
2022/07/11 12:54:05;;;;;;;6.53;1.60;;;19.90;64.30;;;;;;5001347;28;20044;-54
2022/07/11 12:56:31;;;;;;;3.50;1.20;;;19.90;64.20;;;;;;4999988;28;20038;-52
2022/07/11 12:59:01;;;;;;;9.60;1.52;;;19.90;64.20;;;;;;5035610;28;20038;-56
2022/07/11 13:01:27;;;;;;;5.25;1.20;;;19.90;64.30;;;;;;5021936;28;20042;-54